createdAt,value
2017-06-12T00:00:51.056Z,18.90
2017-06-12T00:03:18.588Z,18.90
2017-06-12T00:05:46.147Z,18.80
2017-06-12T00:08:13.767Z,18.80
2017-06-12T00:10:41.591Z,18.70
2017-06-12T00:13:09.744Z,18.60
2017-06-12T00:15:37.330Z,18.60
2017-06-12T00:18:04.859Z,18.50
2017-06-12T00:20:32.367Z,18.60
2017-06-12T00:23:00.639Z,18.60
2017-06-12T00:25:28.168Z,18.60
2017-06-12T00:27:55.647Z,19.00
2017-06-12T00:30:23.155Z,19.50
2017-06-12T00:32:50.755Z,20.20
2017-06-12T00:35:19.011Z,20.60
2017-06-12T00:37:46.522Z,20.60
2017-06-12T00:40:14.099Z,20.90
2017-06-12T00:42:41.643Z,21.00
2017-06-12T00:45:09.130Z,21.00
2017-06-12T00:47:37.381Z,21.10
2017-06-12T00:50:04.888Z,21.10
2017-06-12T00:52:33.211Z,21.30
2017-06-12T00:55:00.698Z,21.30
2017-06-12T00:57:28.533Z,21.40
2017-06-12T00:59:56.202Z,21.30
2017-06-12T01:02:23.689Z,21.30
2017-06-12T01:04:51.515Z,21.20
2017-06-12T01:07:19.167Z,21.20
2017-06-12T01:09:46.787Z,21.10
2017-06-12T01:12:15.093Z,21.10
2017-06-12T01:14:42.699Z,21.10
2017-06-12T01:17:10.523Z,21.10
2017-06-12T01:19:38.392Z,21.00
2017-06-12T01:22:17.856Z,21.00
2017-06-12T01:24:45.417Z,20.90
2017-06-12T01:27:12.956Z,21.00
2017-06-12T01:29:40.479Z,21.00
2017-06-12T01:32:08.067Z,21.00
2017-06-12T01:34:35.720Z,21.10
2017-06-12T01:37:03.227Z,21.10
2017-06-12T01:39:31.501Z,21.20
2017-06-12T01:41:59.111Z,21.20
2017-06-12T01:44:26.598Z,21.30
2017-06-12T01:46:54.121Z,21.30
2017-06-12T01:49:22.523Z,21.40
2017-06-12T01:51:50.011Z,21.30
2017-06-12T01:54:18.532Z,21.30
2017-06-12T01:56:46.295Z,21.30
2017-06-12T01:59:13.807Z,21.30
2017-06-12T02:01:41.323Z,21.30
2017-06-12T02:04:08.916Z,21.20
2017-06-12T02:06:36.480Z,21.20
2017-06-12T02:09:04.852Z,21.10
2017-06-12T02:11:32.568Z,21.10
2017-06-12T02:14:00.209Z,21.10
2017-06-12T02:16:27.838Z,21.10
2017-06-12T02:18:56.091Z,20.90
2017-06-12T02:21:23.663Z,21.00
2017-06-12T02:23:52.024Z,20.80
2017-06-12T02:26:19.595Z,20.80
2017-06-12T02:28:47.083Z,20.70
2017-06-12T02:31:14.578Z,20.70
2017-06-12T02:33:42.443Z,20.60
2017-06-12T02:36:09.931Z,20.70
2017-06-12T02:38:37.611Z,20.70
2017-06-12T02:41:05.170Z,20.60
2017-06-12T02:43:32.716Z,20.60
2017-06-12T02:46:00.377Z,20.50
2017-06-12T02:48:28.000Z,20.50
2017-06-12T02:50:55.567Z,20.50
2017-06-12T02:53:23.055Z,20.40
2017-06-12T02:55:50.563Z,20.40
2017-06-12T02:58:18.116Z,20.30
2017-06-12T03:00:45.955Z,20.20
2017-06-12T03:03:13.660Z,20.20
2017-06-12T03:05:41.480Z,20.10
2017-06-12T03:08:09.026Z,20.10
2017-06-12T03:10:36.603Z,20.10
2017-06-12T03:13:04.253Z,20.10
2017-06-12T03:15:31.855Z,20.10
2017-06-12T03:17:59.414Z,20.10
2017-06-12T03:20:27.100Z,20.00
2017-06-12T03:22:54.680Z,20.00
2017-06-12T03:25:22.707Z,20.00
2017-06-12T03:27:50.274Z,19.90
2017-06-12T03:30:18.071Z,19.90
2017-06-12T03:32:45.604Z,19.70
2017-06-12T03:35:13.195Z,19.60
2017-06-12T03:37:41.051Z,19.60
2017-06-12T03:40:08.567Z,19.50
2017-06-12T03:42:36.142Z,19.50
2017-06-12T03:45:03.699Z,19.50
2017-06-12T03:47:31.218Z,19.50
2017-06-12T03:49:59.630Z,19.40
2017-06-12T03:52:27.120Z,19.50
2017-06-12T03:54:54.846Z,19.50
2017-06-12T03:57:22.379Z,19.50
2017-06-12T03:59:51.044Z,19.50
2017-06-12T04:02:18.786Z,19.50
2017-06-12T04:04:46.275Z,19.60
2017-06-12T04:07:13.787Z,19.70
2017-06-12T04:09:41.659Z,19.90
2017-06-12T04:12:09.156Z,20.10
2017-06-12T04:14:36.676Z,20.20
2017-06-12T04:17:04.219Z,20.30
2017-06-12T04:19:31.914Z,20.40
2017-06-12T04:21:59.495Z,20.40
2017-06-12T04:24:27.067Z,20.40
2017-06-12T04:26:54.694Z,20.40
2017-06-12T04:29:22.230Z,20.40
2017-06-12T04:31:49.980Z,20.40
2017-06-12T04:34:17.467Z,20.40
2017-06-12T04:36:44.959Z,20.40
2017-06-12T04:39:12.491Z,20.50
2017-06-12T04:41:39.982Z,20.50
2017-06-12T04:44:07.790Z,20.60
2017-06-12T04:46:36.156Z,20.60
2017-06-12T04:49:03.667Z,20.60
2017-06-12T04:51:31.336Z,20.70
2017-06-12T04:53:58.823Z,20.70
2017-06-12T04:56:26.519Z,20.80
2017-06-12T04:58:54.251Z,20.90
2017-06-12T05:01:21.786Z,21.00
2017-06-12T05:03:50.073Z,21.00
2017-06-12T05:06:17.619Z,21.20
2017-06-12T05:08:45.179Z,21.40
2017-06-12T05:11:12.898Z,21.40
2017-06-12T05:13:40.496Z,21.50
2017-06-12T05:16:08.155Z,21.50
2017-06-12T05:18:35.931Z,21.80
2017-06-12T05:21:03.607Z,22.20
2017-06-12T05:23:31.182Z,22.90
2017-06-12T05:25:58.682Z,23.60
2017-06-12T05:28:26.236Z,23.60
2017-06-12T05:30:54.047Z,23.60
2017-06-12T05:33:21.563Z,23.60
2017-06-12T05:35:49.121Z,23.40
2017-06-12T05:38:16.715Z,23.40
2017-06-12T05:40:44.965Z,23.20
2017-06-12T05:43:12.908Z,23.30
2017-06-12T05:45:40.608Z,23.30
2017-06-12T05:48:08.096Z,23.70
2017-06-12T05:50:35.913Z,23.90
2017-06-12T05:53:04.256Z,26.80
2017-06-12T05:55:31.808Z,26.80
2017-06-12T05:58:00.518Z,26.70
2017-06-12T06:00:28.047Z,27.90
2017-06-12T06:02:55.590Z,29.00
2017-06-12T06:05:23.141Z,29.70
2017-06-12T06:07:50.666Z,29.70
2017-06-12T06:10:18.336Z,30.40
2017-06-12T06:12:45.886Z,30.40
2017-06-12T06:15:13.735Z,30.50
2017-06-12T06:17:41.224Z,29.80
2017-06-12T06:20:08.754Z,28.80
2017-06-12T06:22:36.248Z,27.60
2017-06-12T06:25:03.823Z,26.10
2017-06-12T06:27:31.626Z,25.60
2017-06-12T06:29:59.151Z,25.70
2017-06-12T06:32:27.555Z,25.50
2017-06-12T06:34:55.091Z,25.60
2017-06-12T06:37:22.671Z,25.50
2017-06-12T06:39:50.202Z,25.90
2017-06-12T06:42:18.006Z,25.30
2017-06-12T06:44:45.499Z,25.60
2017-06-12T06:47:12.996Z,26.40
2017-06-12T06:49:40.543Z,26.70
2017-06-12T06:52:08.082Z,26.40
2017-06-12T06:54:35.680Z,25.70
2017-06-12T06:57:03.211Z,25.60
2017-06-12T06:59:30.739Z,25.90
2017-06-12T07:01:58.441Z,26.40
2017-06-12T07:04:25.939Z,26.60
2017-06-12T07:06:53.528Z,28.10
2017-06-12T07:09:21.090Z,28.00
2017-06-12T07:11:48.638Z,26.40
2017-06-12T07:14:16.133Z,25.30
2017-06-12T07:16:43.713Z,24.90
2017-06-12T07:19:11.203Z,24.70
2017-06-12T07:21:39.492Z,24.80
2017-06-12T07:24:07.103Z,24.80
2017-06-12T07:26:34.890Z,24.40
2017-06-12T07:29:02.404Z,24.30
2017-06-12T11:45:23.322Z,25.00
2017-06-12T11:47:50.831Z,25.00
2017-06-12T11:50:18.314Z,24.90
2017-06-12T11:52:46.003Z,24.80
2017-06-12T11:55:13.960Z,25.00
2017-06-12T11:57:41.506Z,25.30
2017-06-12T12:00:09.059Z,25.90
2017-06-12T12:02:36.556Z,26.20
2017-06-12T12:05:04.095Z,26.40
2017-06-12T12:07:31.592Z,25.70
2017-06-12T12:09:59.131Z,25.70
2017-06-12T12:12:26.926Z,25.70
2017-06-12T12:14:54.435Z,25.60
2017-06-12T12:17:22.087Z,25.50
2017-06-12T12:19:50.423Z,25.40
2017-06-12T12:22:17.982Z,25.40
2017-06-12T12:24:45.508Z,25.40
2017-06-12T12:27:13.041Z,25.50
2017-06-12T12:29:40.917Z,25.20
2017-06-12T12:32:08.423Z,25.10
2017-06-12T12:34:35.967Z,25.30
2017-06-12T12:37:03.491Z,25.40
2017-06-12T12:39:30.982Z,25.50
2017-06-12T12:41:58.935Z,25.50
2017-06-12T12:44:26.439Z,25.30
2017-06-12T12:46:54.211Z,25.10
2017-06-12T12:49:21.719Z,24.90
2017-06-12T12:51:49.687Z,24.70
2017-06-12T12:54:17.443Z,24.70
2017-06-12T12:56:44.935Z,25.10
2017-06-12T12:59:12.464Z,25.60
2017-06-12T13:01:40.143Z,25.80
2017-06-12T13:04:07.799Z,25.50
2017-06-12T13:06:35.364Z,25.30
2017-06-12T13:09:03.136Z,25.20
2017-06-12T13:11:31.010Z,24.70
2017-06-12T13:13:58.504Z,24.50
2017-06-12T13:16:26.151Z,24.00
2017-06-12T13:18:53.731Z,23.70
2017-06-12T13:21:21.225Z,23.70
2017-06-12T13:23:48.842Z,23.50
2017-06-12T13:26:16.341Z,23.50
2017-06-12T13:28:43.855Z,23.60
2017-06-12T13:31:11.994Z,23.80
2017-06-12T13:33:39.646Z,23.60
2017-06-12T13:36:07.304Z,23.40
2017-06-12T13:38:34.840Z,23.60
2017-06-12T13:41:02.713Z,23.50
2017-06-12T13:43:30.843Z,23.60
2017-06-12T13:45:58.380Z,23.60
2017-06-12T13:48:25.867Z,23.50
2017-06-12T13:50:53.375Z,23.60
2017-06-12T13:53:20.873Z,23.50
2017-06-12T13:55:48.427Z,23.30
2017-06-12T13:58:16.843Z,23.30
2017-06-12T14:00:44.379Z,23.30
2017-06-12T14:03:12.182Z,23.20
2017-06-12T14:05:39.980Z,23.20
2017-06-12T14:08:07.528Z,23.30
2017-06-12T14:10:35.257Z,23.10
2017-06-12T14:13:03.763Z,23.60
2017-06-12T14:15:31.275Z,23.60
2017-06-12T14:17:59.777Z,23.50
2017-06-12T14:20:28.169Z,23.40
2017-06-12T14:22:55.675Z,23.40
2017-06-12T14:25:23.228Z,23.20
2017-06-12T14:27:50.870Z,22.90
2017-06-12T14:30:18.621Z,23.00
2017-06-12T14:32:46.113Z,22.90
2017-06-12T14:35:13.676Z,23.00
2017-06-12T14:37:41.247Z,23.00
2017-06-12T14:40:08.825Z,22.80
2017-06-12T14:42:37.091Z,23.00
2017-06-12T14:45:04.621Z,23.00
2017-06-12T14:47:32.140Z,22.50
2017-06-12T14:49:59.699Z,22.40
2017-06-12T14:52:27.311Z,22.50
2017-06-12T14:54:55.973Z,22.20
2017-06-12T14:57:23.615Z,22.10
2017-06-12T14:59:51.146Z,22.40
2017-06-12T15:02:18.723Z,22.50
2017-06-12T15:04:46.423Z,22.40
2017-06-12T15:07:14.224Z,22.20
2017-06-12T15:09:42.130Z,22.10
2017-06-12T15:12:10.222Z,22.20
2017-06-12T15:14:37.775Z,22.10
2017-06-12T15:17:05.623Z,22.00
2017-06-12T15:19:33.855Z,21.90
2017-06-12T15:22:01.374Z,22.00
2017-06-12T15:24:28.953Z,22.20
2017-06-12T15:26:56.441Z,22.40
2017-06-12T15:29:24.083Z,22.60
2017-06-12T15:31:51.878Z,22.50
2017-06-12T15:34:19.831Z,22.60
2017-06-12T15:36:47.372Z,22.30
2017-06-12T15:39:15.359Z,22.40
2017-06-12T15:41:44.060Z,22.00
2017-06-12T15:44:11.755Z,21.80
2017-06-12T15:46:39.522Z,22.00
2017-06-12T15:49:08.723Z,21.90
2017-06-12T15:51:36.296Z,21.90
2017-06-12T15:54:04.036Z,21.90
2017-06-12T15:56:32.650Z,21.90
2017-06-12T15:59:00.447Z,21.90
2017-06-12T16:01:28.291Z,21.90
2017-06-12T16:03:55.869Z,22.00
2017-06-12T16:06:23.418Z,22.20
2017-06-12T16:08:51.223Z,22.00
2017-06-12T16:11:18.771Z,21.90
2017-06-12T16:13:46.405Z,21.60
2017-06-12T16:16:15.172Z,21.70
2017-06-12T16:18:42.878Z,21.40
2017-06-12T16:21:10.391Z,21.40
2017-06-12T16:23:38.171Z,21.40
2017-06-12T16:26:05.819Z,21.40
2017-06-12T16:28:33.343Z,21.60
2017-06-12T16:31:00.896Z,21.30
2017-06-12T16:33:28.430Z,21.30
2017-06-12T16:35:56.703Z,21.40
2017-06-12T16:38:25.011Z,21.40
2017-06-12T16:40:52.525Z,21.40
2017-06-12T16:43:20.171Z,21.10
2017-06-12T16:45:47.796Z,21.00
2017-06-12T16:48:15.288Z,21.10
2017-06-12T16:50:43.323Z,21.00
2017-06-12T16:53:10.808Z,20.70
2017-06-12T16:55:38.317Z,20.50
2017-06-12T16:58:06.045Z,20.40
2017-06-12T17:00:33.594Z,20.50
2017-06-12T17:03:01.114Z,20.60
2017-06-12T17:05:31.532Z,20.60
2017-06-12T17:07:59.439Z,20.40
2017-06-12T17:10:27.123Z,20.30
2017-06-12T17:12:55.436Z,20.40
2017-06-12T17:15:22.937Z,20.40
2017-06-12T17:17:50.448Z,20.40
2017-06-12T17:20:19.359Z,20.40
2017-06-12T17:22:47.930Z,20.40
2017-06-12T17:25:15.416Z,20.30
2017-06-12T17:27:43.077Z,20.20
2017-06-12T17:30:11.706Z,20.10
2017-06-12T17:32:40.100Z,19.80
2017-06-12T17:35:07.963Z,19.70
2017-06-12T17:37:35.454Z,19.60
2017-06-12T17:40:02.998Z,19.50
2017-06-12T17:42:30.492Z,19.40
2017-06-12T17:44:58.751Z,19.40
2017-06-12T17:47:27.056Z,19.30
2017-06-12T17:49:54.631Z,19.30
2017-06-12T17:52:22.271Z,19.10
2017-06-12T17:54:49.759Z,19.00
2017-06-12T17:57:17.449Z,19.00
2017-06-12T17:59:44.962Z,18.90
2017-06-12T18:02:12.558Z,18.90
2017-06-12T18:04:40.116Z,18.90
2017-06-12T18:07:08.051Z,18.80
2017-06-12T18:09:35.595Z,18.80
2017-06-12T18:12:03.295Z,18.80
2017-06-12T18:14:31.094Z,18.60
2017-06-12T18:16:58.695Z,18.60
2017-06-12T18:19:26.192Z,18.50
2017-06-12T18:21:53.719Z,18.50
2017-06-12T18:24:21.268Z,18.50
2017-06-12T18:26:48.795Z,18.30
2017-06-12T18:29:16.340Z,18.30
2017-06-12T18:31:43.837Z,18.40
2017-06-12T18:34:11.547Z,18.20
2017-06-12T18:36:40.640Z,18.10
2017-06-12T18:39:08.968Z,18.00
2017-06-12T18:41:36.459Z,18.00
2017-06-12T18:44:10.601Z,17.90
2017-06-12T18:46:38.416Z,17.90
2017-06-12T18:49:06.860Z,17.80
2017-06-12T18:51:36.577Z,17.80
2017-06-12T18:54:05.685Z,17.80
2017-06-12T18:56:36.160Z,17.70
2017-06-12T18:59:05.280Z,17.50
2017-06-12T19:01:36.771Z,17.40
2017-06-12T19:04:05.514Z,17.20
2017-06-12T19:06:33.796Z,17.10
2017-06-12T19:09:04.562Z,16.90
2017-06-12T19:11:34.567Z,16.90
2017-06-12T19:14:05.394Z,16.70
2017-06-12T19:16:36.858Z,16.70
2017-06-12T19:19:06.321Z,16.60
2017-06-12T19:21:35.842Z,16.50
2017-06-12T19:24:06.839Z,16.40
2017-06-12T19:26:35.685Z,16.40
2017-06-12T19:29:04.503Z,16.30
2017-06-12T19:31:35.219Z,16.30
2017-06-12T19:34:04.887Z,16.30
2017-06-12T19:36:32.739Z,16.30
2017-06-12T19:39:02.061Z,16.20
2017-06-12T19:41:30.625Z,16.20
2017-06-12T19:44:00.475Z,16.20
2017-06-12T19:46:30.961Z,16.10
2017-06-12T19:49:02.404Z,16.00
2017-06-12T19:51:32.288Z,16.00
2017-06-12T19:54:02.377Z,15.90
2017-06-12T19:56:30.864Z,15.80
2017-06-12T19:58:59.946Z,15.70
2017-06-12T20:01:30.159Z,15.50
2017-06-12T20:04:00.728Z,15.50
2017-06-12T20:06:30.495Z,15.40
2017-06-12T20:08:59.762Z,15.40
2017-06-12T20:11:29.416Z,15.60
2017-06-12T20:13:58.435Z,15.60
2017-06-12T20:16:27.771Z,15.60
2017-06-12T20:18:58.696Z,15.60
2017-06-12T20:21:27.559Z,15.50
2017-06-12T20:23:57.867Z,15.50
2017-06-12T20:26:28.892Z,15.40
2017-06-12T20:28:58.569Z,15.30
2017-06-12T20:31:28.595Z,15.30
2017-06-12T20:33:57.801Z,15.30
2017-06-12T20:36:27.710Z,15.20
2017-06-12T20:38:56.738Z,15.20
2017-06-12T20:41:24.304Z,15.20
2017-06-12T20:43:53.853Z,15.10
2017-06-12T20:46:22.197Z,15.00
2017-06-12T20:48:50.349Z,14.90
2017-06-12T20:51:17.924Z,14.80
2017-06-12T20:53:45.679Z,14.70
2017-06-12T20:56:13.571Z,14.60
2017-06-12T20:58:41.326Z,14.50
2017-06-12T21:01:09.461Z,14.50
2017-06-12T21:03:37.122Z,14.40
2017-06-12T21:06:04.848Z,14.40
2017-06-12T21:08:32.398Z,14.40
2017-06-12T21:11:00.190Z,14.40
2017-06-12T21:13:27.719Z,14.30
2017-06-12T21:15:55.459Z,14.20
2017-06-12T21:18:23.049Z,14.20
2017-06-12T21:20:50.879Z,14.20
2017-06-12T21:23:18.403Z,14.10
2017-06-12T21:25:45.928Z,14.10
2017-06-12T21:28:13.798Z,14.00
2017-06-12T21:30:41.509Z,13.90
2017-06-12T21:33:09.031Z,13.80
2017-06-12T21:35:37.067Z,13.70
2017-06-12T21:38:04.579Z,13.80
2017-06-12T21:40:32.419Z,13.80
2017-06-12T21:43:00.675Z,13.70
2017-06-12T21:45:28.767Z,13.70
2017-06-12T21:47:57.022Z,13.80
2017-06-12T21:50:25.282Z,13.70
2017-06-12T21:52:52.787Z,13.70
2017-06-12T21:55:20.459Z,13.60
2017-06-12T21:57:47.988Z,13.50
2017-06-12T22:00:15.662Z,13.40
2017-06-12T22:02:43.155Z,13.30
2017-06-12T22:05:10.723Z,13.30
2017-06-12T22:07:38.211Z,13.30
2017-06-12T22:10:05.787Z,13.20
2017-06-12T22:12:33.607Z,13.10
2017-06-12T22:15:01.437Z,13.10
2017-06-12T22:17:28.951Z,13.00
2017-06-12T22:19:56.590Z,13.10
2017-06-12T22:22:24.426Z,13.00
2017-06-12T22:24:52.384Z,13.00
2017-06-12T22:27:21.455Z,13.00
2017-06-12T22:29:49.338Z,12.90
2017-06-12T22:32:16.826Z,12.90
2017-06-12T22:34:44.507Z,12.70
2017-06-12T22:37:12.218Z,12.60
2017-06-12T22:39:40.623Z,12.50
2017-06-12T22:42:08.973Z,12.60
2017-06-12T22:44:37.138Z,12.60
2017-06-12T22:47:04.652Z,12.60
2017-06-12T22:49:33.840Z,12.60
2017-06-12T22:52:01.571Z,12.60
2017-06-12T22:54:29.078Z,12.60
2017-06-12T22:56:56.852Z,12.60
2017-06-12T22:59:24.496Z,12.70
2017-06-12T23:01:52.099Z,12.70
2017-06-12T23:04:19.597Z,12.60
2017-06-12T23:06:47.159Z,12.70
2017-06-12T23:09:14.919Z,12.80
2017-06-12T23:11:43.255Z,12.80
2017-06-12T23:14:10.773Z,12.80
2017-06-12T23:16:38.400Z,12.80
2017-06-12T23:19:06.119Z,12.70
2017-06-12T23:21:33.668Z,12.70
2017-06-12T23:24:06.797Z,12.60
2017-06-12T23:26:34.318Z,12.70
2017-06-12T23:29:01.891Z,12.80
2017-06-12T23:31:29.678Z,12.80
2017-06-12T23:33:57.225Z,12.80
2017-06-12T23:36:24.890Z,12.80
2017-06-12T23:38:53.423Z,12.80
2017-06-12T23:41:21.119Z,12.80
2017-06-12T23:43:49.476Z,12.80
2017-06-12T23:46:17.095Z,12.80
2017-06-12T23:48:45.439Z,12.70
2017-06-12T23:51:13.063Z,12.70
2017-06-12T23:53:40.593Z,12.70
2017-06-12T23:56:09.411Z,12.70
2017-06-12T23:58:37.021Z,12.60
